sensor_id;sensor_type;location;lat;lon;timestamp;temperature;humidity
18426;DHT22;9340;48.756;9.226;2023-05-10T00:01:43;14.80;99.90
18426;DHT22;9340;48.756;9.226;2023-05-10T00:04:10;14.80;99.90
18426;DHT22;9340;48.756;9.226;2023-05-10T00:06:37;14.80;99.90
18426;DHT22;9340;48.756;9.226;2023-05-10T00:09:03;14.90;99.90
18426;DHT22;9340;48.756;9.226;2023-05-10T00:11:30;14.90;99.90
18426;DHT22;9340;48.756;9.226;2023-05-10T00:13:58;14.90;99.90
18426;DHT22;9340;48.756;9.226;2023-05-10T00:16:25;14.70;99.90
18426;DHT22;9340;48.756;9.226;2023-05-10T00:18:51;14.70;99.90
18426;DHT22;9340;48.756;9.226;2023-05-10T00:21:18;14.70;99.90
18426;DHT22;9340;48.756;9.226;2023-05-10T00:23:45;14.70;99.90
18426;DHT22;9340;48.756;9.226;2023-05-10T00:26:11;14.70;99.90
18426;DHT22;9340;48.756;9.226;2023-05-10T00:28:38;14.60;99.90
18426;DHT22;9340;48.756;9.226;2023-05-10T00:31:06;14.50;99.90
18426;DHT22;9340;48.756;9.226;2023-05-10T00:33:32;14.50;99.90
18426;DHT22;9340;48.756;9.226;2023-05-10T00:35:59;14.50;99.90
18426;DHT22;9340;48.756;9.226;2023-05-10T00:38:26;14.50;99.90
18426;DHT22;9340;48.756;9.226;2023-05-10T00:40:52;14.30;99.90
18426;DHT22;9340;48.756;9.226;2023-05-10T00:43:19;14.30;99.90
18426;DHT22;9340;48.756;9.226;2023-05-10T00:45:46;14.30;99.90
18426;DHT22;9340;48.756;9.226;2023-05-10T00:48:14;14.20;99.90
18426;DHT22;9340;48.756;9.226;2023-05-10T00:50:41;14.20;99.90
18426;DHT22;9340;48.756;9.226;2023-05-10T00:53:08;14.20;99.90
18426;DHT22;9340;48.756;9.226;2023-05-10T00:55:36;14.30;99.90
18426;DHT22;9340;48.756;9.226;2023-05-10T00:58:02;14.20;99.90
18426;DHT22;9340;48.756;9.226;2023-05-10T01:00:30;14.20;99.90
18426;DHT22;9340;48.756;9.226;2023-05-10T01:02:56;14.20;99.90
18426;DHT22;9340;48.756;9.226;2023-05-10T01:05:25;14.20;99.90
18426;DHT22;9340;48.756;9.226;2023-05-10T01:07:52;14.20;99.90
18426;DHT22;9340;48.756;9.226;2023-05-10T01:10:19;14.10;99.90
18426;DHT22;9340;48.756;9.226;2023-05-10T01:12:47;14.00;99.90
18426;DHT22;9340;48.756;9.226;2023-05-10T01:15:14;14.00;99.90
18426;DHT22;9340;48.756;9.226;2023-05-10T01:17:44;14.00;99.90
18426;DHT22;9340;48.756;9.226;2023-05-10T01:20:12;14.00;99.90
18426;DHT22;9340;48.756;9.226;2023-05-10T01:23:02;13.90;99.90
18426;DHT22;9340;48.756;9.226;2023-05-10T01:26:19;13.90;99.90
18426;DHT22;9340;48.756;9.226;2023-05-10T01:29:13;13.80;99.90
18426;DHT22;9340;48.756;9.226;2023-05-10T01:32:13;13.80;99.90
18426;DHT22;9340;48.756;9.226;2023-05-10T01:34:48;13.80;99.90
18426;DHT22;9340;48.756;9.226;2023-05-10T01:37:21;13.90;99.90
18426;DHT22;9340;48.756;9.226;2023-05-10T01:39:54;13.80;99.90
18426;DHT22;9340;48.756;9.226;2023-05-10T01:42:25;13.90;99.90
18426;DHT22;9340;48.756;9.226;2023-05-10T01:44:56;13.90;99.90
18426;DHT22;9340;48.756;9.226;2023-05-10T01:47:31;13.80;99.90
18426;DHT22;9340;48.756;9.226;2023-05-10T01:50:03;13.80;99.90
18426;DHT22;9340;48.756;9.226;2023-05-10T01:52:33;13.70;99.90
18426;DHT22;9340;48.756;9.226;2023-05-10T01:55:06;13.70;99.90
18426;DHT22;9340;48.756;9.226;2023-05-10T01:57:36;13.70;99.90
18426;DHT22;9340;48.756;9.226;2023-05-10T02:00:08;13.60;99.90
18426;DHT22;9340;48.756;9.226;2023-05-10T02:02:39;13.50;99.90
18426;DHT22;9340;48.756;9.226;2023-05-10T02:05:08;13.60;99.90
18426;DHT22;9340;48.756;9.226;2023-05-10T02:07:36;13.50;99.90
18426;DHT22;9340;48.756;9.226;2023-05-10T02:10:04;13.40;99.90
18426;DHT22;9340;48.756;9.226;2023-05-10T02:12:35;13.40;99.90
18426;DHT22;9340;48.756;9.226;2023-05-10T02:15:04;13.40;99.90
18426;DHT22;9340;48.756;9.226;2023-05-10T02:17:32;13.40;99.90
18426;DHT22;9340;48.756;9.226;2023-05-10T02:20:01;13.30;99.90
18426;DHT22;9340;48.756;9.226;2023-05-10T02:22:29;13.20;99.90
18426;DHT22;9340;48.756;9.226;2023-05-10T02:24:58;13.10;99.90
18426;DHT22;9340;48.756;9.226;2023-05-10T02:27:27;13.00;99.90
18426;DHT22;9340;48.756;9.226;2023-05-10T02:29:54;13.00;99.90
18426;DHT22;9340;48.756;9.226;2023-05-10T02:32:22;12.90;99.90
18426;DHT22;9340;48.756;9.226;2023-05-10T02:34:51;12.90;99.90
18426;DHT22;9340;48.756;9.226;2023-05-10T02:37:21;12.90;99.90
18426;DHT22;9340;48.756;9.226;2023-05-10T02:39:49;12.80;99.90
18426;DHT22;9340;48.756;9.226;2023-05-10T02:42:18;12.80;99.90
18426;DHT22;9340;48.756;9.226;2023-05-10T02:44:47;12.90;99.90
18426;DHT22;9340;48.756;9.226;2023-05-10T02:47:14;13.00;99.90
18426;DHT22;9340;48.756;9.226;2023-05-10T02:49:41;13.00;99.90
18426;DHT22;9340;48.756;9.226;2023-05-10T02:52:08;13.00;99.90
18426;DHT22;9340;48.756;9.226;2023-05-10T02:54:42;13.10;99.90
18426;DHT22;9340;48.756;9.226;2023-05-10T02:57:15;13.20;99.90
18426;DHT22;9340;48.756;9.226;2023-05-10T02:59:43;13.30;99.90
18426;DHT22;9340;48.756;9.226;2023-05-10T03:02:10;13.20;99.90
18426;DHT22;9340;48.756;9.226;2023-05-10T03:04:38;13.20;99.90
18426;DHT22;9340;48.756;9.226;2023-05-10T03:07:05;13.10;99.90
18426;DHT22;9340;48.756;9.226;2023-05-10T03:09:32;13.10;99.90
18426;DHT22;9340;48.756;9.226;2023-05-10T03:12:06;13.20;99.90
18426;DHT22;9340;48.756;9.226;2023-05-10T03:14:42;13.20;99.90
18426;DHT22;9340;48.756;9.226;2023-05-10T03:17:16;13.20;99.90
18426;DHT22;9340;48.756;9.226;2023-05-10T03:19:53;13.20;99.90
18426;DHT22;9340;48.756;9.226;2023-05-10T03:22:24;13.10;99.90
18426;DHT22;9340;48.756;9.226;2023-05-10T03:24:53;13.10;99.90
18426;DHT22;9340;48.756;9.226;2023-05-10T03:27:23;13.20;99.90
18426;DHT22;9340;48.756;9.226;2023-05-10T03:29:52;13.20;99.90
18426;DHT22;9340;48.756;9.226;2023-05-10T03:32:19;13.20;99.90
18426;DHT22;9340;48.756;9.226;2023-05-10T03:34:46;13.20;99.90
18426;DHT22;9340;48.756;9.226;2023-05-10T03:37:13;13.30;99.90
18426;DHT22;9340;48.756;9.226;2023-05-10T03:39:39;13.30;99.90
18426;DHT22;9340;48.756;9.226;2023-05-10T03:42:06;13.30;99.90
18426;DHT22;9340;48.756;9.226;2023-05-10T03:44:34;13.30;99.90
18426;DHT22;9340;48.756;9.226;2023-05-10T03:47:01;13.40;99.90
18426;DHT22;9340;48.756;9.226;2023-05-10T03:49:27;13.40;99.90
18426;DHT22;9340;48.756;9.226;2023-05-10T03:51:54;13.40;99.90
18426;DHT22;9340;48.756;9.226;2023-05-10T03:54:21;13.40;99.90
18426;DHT22;9340;48.756;9.226;2023-05-10T03:56:47;13.40;99.90
18426;DHT22;9340;48.756;9.226;2023-05-10T03:59:14;13.40;99.90
18426;DHT22;9340;48.756;9.226;2023-05-10T04:01:42;13.40;99.90
18426;DHT22;9340;48.756;9.226;2023-05-10T04:04:08;13.40;99.90
18426;DHT22;9340;48.756;9.226;2023-05-10T04:06:35;13.40;99.90
18426;DHT22;9340;48.756;9.226;2023-05-10T04:09:02;13.50;99.90
18426;DHT22;9340;48.756;9.226;2023-05-10T04:11:30;13.40;99.90
18426;DHT22;9340;48.756;9.226;2023-05-10T04:13:56;13.40;99.90
18426;DHT22;9340;48.756;9.226;2023-05-10T04:16:23;13.40;99.90
18426;DHT22;9340;48.756;9.226;2023-05-10T04:18:51;13.40;99.90
18426;DHT22;9340;48.756;9.226;2023-05-10T04:21:18;13.50;99.90
18426;DHT22;9340;48.756;9.226;2023-05-10T04:23:44;13.50;99.90
18426;DHT22;9340;48.756;9.226;2023-05-10T04:26:11;13.50;99.90
18426;DHT22;9340;48.756;9.226;2023-05-10T04:28:38;13.50;99.90
18426;DHT22;9340;48.756;9.226;2023-05-10T04:31:06;13.60;99.90
18426;DHT22;9340;48.756;9.226;2023-05-10T04:33:33;13.60;99.90
18426;DHT22;9340;48.756;9.226;2023-05-10T04:36:02;13.60;99.90
18426;DHT22;9340;48.756;9.226;2023-05-10T04:38:29;13.50;99.90
18426;DHT22;9340;48.756;9.226;2023-05-10T04:41:04;13.50;99.90
18426;DHT22;9340;48.756;9.226;2023-05-10T04:43:31;13.70;99.90
18426;DHT22;9340;48.756;9.226;2023-05-10T04:45:58;13.70;99.90
18426;DHT22;9340;48.756;9.226;2023-05-10T04:48:24;13.70;99.90
18426;DHT22;9340;48.756;9.226;2023-05-10T04:50:51;13.70;99.90
18426;DHT22;9340;48.756;9.226;2023-05-10T04:53:19;13.80;99.90
18426;DHT22;9340;48.756;9.226;2023-05-10T04:55:45;13.80;99.90
18426;DHT22;9340;48.756;9.226;2023-05-10T04:58:13;13.90;99.90
18426;DHT22;9340;48.756;9.226;2023-05-10T05:00:40;14.00;99.90
18426;DHT22;9340;48.756;9.226;2023-05-10T05:03:07;14.10;99.90
18426;DHT22;9340;48.756;9.226;2023-05-10T05:05:33;14.10;99.90
18426;DHT22;9340;48.756;9.226;2023-05-10T05:08:00;14.10;99.90
18426;DHT22;9340;48.756;9.226;2023-05-10T05:10:28;14.20;99.90
18426;DHT22;9340;48.756;9.226;2023-05-10T05:12:55;14.20;99.90
18426;DHT22;9340;48.756;9.226;2023-05-10T05:15:22;14.40;99.90
18426;DHT22;9340;48.756;9.226;2023-05-10T05:17:48;14.70;99.90
18426;DHT22;9340;48.756;9.226;2023-05-10T05:20:15;14.70;99.90
18426;DHT22;9340;48.756;9.226;2023-05-10T05:22:42;14.80;99.90
18426;DHT22;9340;48.756;9.226;2023-05-10T05:25:09;14.90;99.90
18426;DHT22;9340;48.756;9.226;2023-05-10T05:27:38;15.00;99.90
18426;DHT22;9340;48.756;9.226;2023-05-10T05:30:06;15.00;99.90
18426;DHT22;9340;48.756;9.226;2023-05-10T05:32:33;15.00;99.90
18426;DHT22;9340;48.756;9.226;2023-05-10T05:34:59;15.00;99.90
18426;DHT22;9340;48.756;9.226;2023-05-10T05:37:26;15.00;99.90
18426;DHT22;9340;48.756;9.226;2023-05-10T05:39:52;15.10;99.90
18426;DHT22;9340;48.756;9.226;2023-05-10T05:42:20;15.20;99.90
18426;DHT22;9340;48.756;9.226;2023-05-10T05:44:48;15.30;99.90
18426;DHT22;9340;48.756;9.226;2023-05-10T05:47:15;15.50;99.90
18426;DHT22;9340;48.756;9.226;2023-05-10T05:49:41;15.60;99.90
18426;DHT22;9340;48.756;9.226;2023-05-10T05:52:11;15.60;99.90
18426;DHT22;9340;48.756;9.226;2023-05-10T05:54:37;15.60;99.90
18426;DHT22;9340;48.756;9.226;2023-05-10T05:57:04;15.60;99.90
18426;DHT22;9340;48.756;9.226;2023-05-10T05:59:31;15.50;99.90
18426;DHT22;9340;48.756;9.226;2023-05-10T06:01:59;15.50;99.90
18426;DHT22;9340;48.756;9.226;2023-05-10T06:04:25;15.60;99.90
18426;DHT22;9340;48.756;9.226;2023-05-10T06:06:52;15.60;99.90
18426;DHT22;9340;48.756;9.226;2023-05-10T06:09:19;15.60;99.90
18426;DHT22;9340;48.756;9.226;2023-05-10T06:11:45;15.60;99.90
18426;DHT22;9340;48.756;9.226;2023-05-10T06:14:12;15.50;99.90
18426;DHT22;9340;48.756;9.226;2023-05-10T06:16:39;15.60;99.90
18426;DHT22;9340;48.756;9.226;2023-05-10T06:19:07;15.70;99.90
18426;DHT22;9340;48.756;9.226;2023-05-10T06:21:33;15.90;99.90
18426;DHT22;9340;48.756;9.226;2023-05-10T06:24:00;16.10;99.90
18426;DHT22;9340;48.756;9.226;2023-05-10T06:26:28;16.30;99.90
18426;DHT22;9340;48.756;9.226;2023-05-10T06:28:54;16.40;99.90
18426;DHT22;9340;48.756;9.226;2023-05-10T06:31:21;16.40;99.90
18426;DHT22;9340;48.756;9.226;2023-05-10T06:33:48;16.30;99.90
18426;DHT22;9340;48.756;9.226;2023-05-10T06:36:16;16.20;99.90
18426;DHT22;9340;48.756;9.226;2023-05-10T06:38:42;16.10;99.90
18426;DHT22;9340;48.756;9.226;2023-05-10T06:41:09;16.20;99.90
18426;DHT22;9340;48.756;9.226;2023-05-10T06:43:36;16.20;99.90
18426;DHT22;9340;48.756;9.226;2023-05-10T06:46:05;16.20;99.90
18426;DHT22;9340;48.756;9.226;2023-05-10T06:48:32;16.10;99.90
18426;DHT22;9340;48.756;9.226;2023-05-10T06:50:59;16.10;99.90
18426;DHT22;9340;48.756;9.226;2023-05-10T06:53:27;16.10;99.90
18426;DHT22;9340;48.756;9.226;2023-05-10T06:55:54;16.10;99.90
18426;DHT22;9340;48.756;9.226;2023-05-10T06:58:20;16.20;99.90
18426;DHT22;9340;48.756;9.226;2023-05-10T07:00:47;16.20;99.90
18426;DHT22;9340;48.756;9.226;2023-05-10T07:03:13;16.20;99.90
18426;DHT22;9340;48.756;9.226;2023-05-10T07:05:40;16.20;99.90
18426;DHT22;9340;48.756;9.226;2023-05-10T07:08:07;16.20;99.90
18426;DHT22;9340;48.756;9.226;2023-05-10T07:10:35;16.10;99.90
18426;DHT22;9340;48.756;9.226;2023-05-10T07:13:02;16.00;99.90
18426;DHT22;9340;48.756;9.226;2023-05-10T07:15:29;16.00;99.90
18426;DHT22;9340;48.756;9.226;2023-05-10T07:17:55;16.20;99.90
18426;DHT22;9340;48.756;9.226;2023-05-10T07:20:22;16.50;99.90
18426;DHT22;9340;48.756;9.226;2023-05-10T07:22:48;16.90;99.90
18426;DHT22;9340;48.756;9.226;2023-05-10T07:25:15;17.30;99.90
18426;DHT22;9340;48.756;9.226;2023-05-10T07:27:43;17.60;99.90
18426;DHT22;9340;48.756;9.226;2023-05-10T07:30:11;17.90;99.90
18426;DHT22;9340;48.756;9.226;2023-05-10T07:32:38;18.20;99.90
18426;DHT22;9340;48.756;9.226;2023-05-10T07:35:07;18.30;99.90
18426;DHT22;9340;48.756;9.226;2023-05-10T07:37:34;18.40;99.90
18426;DHT22;9340;48.756;9.226;2023-05-10T07:40:01;18.40;99.90
18426;DHT22;9340;48.756;9.226;2023-05-10T07:42:28;18.50;99.90
18426;DHT22;9340;48.756;9.226;2023-05-10T07:44:56;18.50;99.90
18426;DHT22;9340;48.756;9.226;2023-05-10T07:47:23;18.40;99.90
18426;DHT22;9340;48.756;9.226;2023-05-10T07:49:49;18.60;99.90
18426;DHT22;9340;48.756;9.226;2023-05-10T07:52:16;18.70;99.90
18426;DHT22;9340;48.756;9.226;2023-05-10T07:54:43;18.90;99.90
18426;DHT22;9340;48.756;9.226;2023-05-10T07:57:09;18.90;99.90
18426;DHT22;9340;48.756;9.226;2023-05-10T07:59:36;18.90;99.90
18426;DHT22;9340;48.756;9.226;2023-05-10T08:02:04;18.70;99.90
18426;DHT22;9340;48.756;9.226;2023-05-10T08:04:31;18.50;99.90
18426;DHT22;9340;48.756;9.226;2023-05-10T08:06:57;18.50;99.90
18426;DHT22;9340;48.756;9.226;2023-05-10T08:09:24;18.50;99.90
18426;DHT22;9340;48.756;9.226;2023-05-10T08:11:51;18.40;99.90
18426;DHT22;9340;48.756;9.226;2023-05-10T08:14:17;18.30;99.90
18426;DHT22;9340;48.756;9.226;2023-05-10T08:16:44;18.20;99.90
18426;DHT22;9340;48.756;9.226;2023-05-10T08:19:12;18.10;99.90
18426;DHT22;9340;48.756;9.226;2023-05-10T08:21:39;18.00;99.90
18426;DHT22;9340;48.756;9.226;2023-05-10T08:24:07;18.20;99.90
18426;DHT22;9340;48.756;9.226;2023-05-10T08:26:34;18.50;99.90
18426;DHT22;9340;48.756;9.226;2023-05-10T08:29:01;18.70;99.90
18426;DHT22;9340;48.756;9.226;2023-05-10T08:31:27;18.60;99.90
18426;DHT22;9340;48.756;9.226;2023-05-10T08:33:54;18.50;99.90
18426;DHT22;9340;48.756;9.226;2023-05-10T08:36:22;18.40;99.90
18426;DHT22;9340;48.756;9.226;2023-05-10T08:38:50;18.30;99.90
18426;DHT22;9340;48.756;9.226;2023-05-10T08:41:18;18.10;99.90
18426;DHT22;9340;48.756;9.226;2023-05-10T08:43:46;18.30;99.90
18426;DHT22;9340;48.756;9.226;2023-05-10T08:46:16;18.40;99.90
18426;DHT22;9340;48.756;9.226;2023-05-10T08:48:44;18.40;99.90
18426;DHT22;9340;48.756;9.226;2023-05-10T08:51:13;18.50;99.90
18426;DHT22;9340;48.756;9.226;2023-05-10T08:53:43;18.50;99.90
18426;DHT22;9340;48.756;9.226;2023-05-10T08:56:10;18.20;99.90
18426;DHT22;9340;48.756;9.226;2023-05-10T08:58:37;18.00;99.90
18426;DHT22;9340;48.756;9.226;2023-05-10T09:01:05;18.00;99.90
18426;DHT22;9340;48.756;9.226;2023-05-10T09:03:32;18.00;99.90
18426;DHT22;9340;48.756;9.226;2023-05-10T09:05:58;18.30;99.90
18426;DHT22;9340;48.756;9.226;2023-05-10T09:08:25;18.80;99.90
18426;DHT22;9340;48.756;9.226;2023-05-10T09:10:54;19.40;99.90
18426;DHT22;9340;48.756;9.226;2023-05-10T09:13:21;19.90;99.90
18426;DHT22;9340;48.756;9.226;2023-05-10T09:15:48;20.20;99.90
18426;DHT22;9340;48.756;9.226;2023-05-10T09:18:15;20.40;99.90
18426;DHT22;9340;48.756;9.226;2023-05-10T09:20:42;20.60;99.90
18426;DHT22;9340;48.756;9.226;2023-05-10T09:23:08;20.60;99.90
18426;DHT22;9340;48.756;9.226;2023-05-10T09:25:35;20.40;99.90
18426;DHT22;9340;48.756;9.226;2023-05-10T09:28:07;19.80;99.90
18426;DHT22;9340;48.756;9.226;2023-05-10T09:30:34;19.70;99.90
18426;DHT22;9340;48.756;9.226;2023-05-10T09:33:01;19.60;99.90
18426;DHT22;9340;48.756;9.226;2023-05-10T09:35:30;19.20;99.90
18426;DHT22;9340;48.756;9.226;2023-05-10T09:38:00;18.80;99.90
18426;DHT22;9340;48.756;9.226;2023-05-10T09:40:28;18.30;99.90
18426;DHT22;9340;48.756;9.226;2023-05-10T09:42:56;18.20;99.90
18426;DHT22;9340;48.756;9.226;2023-05-10T09:45:26;18.30;99.90
18426;DHT22;9340;48.756;9.226;2023-05-10T09:47:53;18.60;99.90
18426;DHT22;9340;48.756;9.226;2023-05-10T09:50:20;18.90;99.90
18426;DHT22;9340;48.756;9.226;2023-05-10T09:52:52;19.40;99.90
18426;DHT22;9340;48.756;9.226;2023-05-10T09:55:20;20.00;99.90
18426;DHT22;9340;48.756;9.226;2023-05-10T09:57:48;20.50;99.90
18426;DHT22;9340;48.756;9.226;2023-05-10T10:00:18;20.90;99.90
18426;DHT22;9340;48.756;9.226;2023-05-10T10:02:53;21.20;99.90
18426;DHT22;9340;48.756;9.226;2023-05-10T10:05:22;21.50;99.90
18426;DHT22;9340;48.756;9.226;2023-05-10T10:07:54;21.90;99.90
18426;DHT22;9340;48.756;9.226;2023-05-10T10:10:21;21.80;99.90
18426;DHT22;9340;48.756;9.226;2023-05-10T10:12:48;21.40;99.90
18426;DHT22;9340;48.756;9.226;2023-05-10T10:15:15;21.50;99.90
18426;DHT22;9340;48.756;9.226;2023-05-10T10:17:43;21.50;99.90
18426;DHT22;9340;48.756;9.226;2023-05-10T10:20:12;21.30;99.90
18426;DHT22;9340;48.756;9.226;2023-05-10T10:22:39;21.20;99.90
18426;DHT22;9340;48.756;9.226;2023-05-10T10:25:07;20.80;99.90
18426;DHT22;9340;48.756;9.226;2023-05-10T10:27:41;20.30;99.90
18426;DHT22;9340;48.756;9.226;2023-05-10T10:30:18;20.00;99.90
18426;DHT22;9340;48.756;9.226;2023-05-10T10:32:59;20.00;99.90
18426;DHT22;9340;48.756;9.226;2023-05-10T10:35:29;20.20;99.90
18426;DHT22;9340;48.756;9.226;2023-05-10T10:37:57;20.30;99.90
18426;DHT22;9340;48.756;9.226;2023-05-10T10:40:25;20.40;99.90
18426;DHT22;9340;48.756;9.226;2023-05-10T10:42:52;20.50;99.90
18426;DHT22;9340;48.756;9.226;2023-05-10T10:45:21;20.60;99.90
18426;DHT22;9340;48.756;9.226;2023-05-10T10:47:48;20.70;99.90
18426;DHT22;9340;48.756;9.226;2023-05-10T10:50:15;20.80;99.90
18426;DHT22;9340;48.756;9.226;2023-05-10T10:52:44;20.70;99.90
18426;DHT22;9340;48.756;9.226;2023-05-10T10:55:12;20.80;99.90
18426;DHT22;9340;48.756;9.226;2023-05-10T10:57:44;20.60;99.90
18426;DHT22;9340;48.756;9.226;2023-05-10T11:00:19;20.30;99.90
18426;DHT22;9340;48.756;9.226;2023-05-10T11:02:47;19.90;99.90
18426;DHT22;9340;48.756;9.226;2023-05-10T11:05:25;19.40;99.90
18426;DHT22;9340;48.756;9.226;2023-05-10T11:07:54;18.50;99.90
18426;DHT22;9340;48.756;9.226;2023-05-10T11:10:21;18.10;99.90
18426;DHT22;9340;48.756;9.226;2023-05-10T11:12:52;17.90;99.90
18426;DHT22;9340;48.756;9.226;2023-05-10T11:15:19;17.80;99.90
18426;DHT22;9340;48.756;9.226;2023-05-10T11:17:48;17.60;99.90
18426;DHT22;9340;48.756;9.226;2023-05-10T11:20:17;17.40;99.90
18426;DHT22;9340;48.756;9.226;2023-05-10T11:22:51;17.10;99.90
18426;DHT22;9340;48.756;9.226;2023-05-10T11:25:23;17.00;99.90
18426;DHT22;9340;48.756;9.226;2023-05-10T11:27:52;17.00;99.90
18426;DHT22;9340;48.756;9.226;2023-05-10T11:30:19;17.10;99.90
18426;DHT22;9340;48.756;9.226;2023-05-10T11:32:45;17.30;99.90
18426;DHT22;9340;48.756;9.226;2023-05-10T11:35:13;17.50;99.90
18426;DHT22;9340;48.756;9.226;2023-05-10T11:37:48;17.70;99.90
18426;DHT22;9340;48.756;9.226;2023-05-10T11:40:14;18.00;99.90
18426;DHT22;9340;48.756;9.226;2023-05-10T11:42:41;18.30;99.90
18426;DHT22;9340;48.756;9.226;2023-05-10T11:45:09;18.50;99.90
18426;DHT22;9340;48.756;9.226;2023-05-10T11:47:35;18.90;99.90
18426;DHT22;9340;48.756;9.226;2023-05-10T11:50:02;19.20;99.90
18426;DHT22;9340;48.756;9.226;2023-05-10T11:52:35;19.30;99.90
18426;DHT22;9340;48.756;9.226;2023-05-10T11:55:04;19.30;99.90
18426;DHT22;9340;48.756;9.226;2023-05-10T11:57:31;19.00;99.90
18426;DHT22;9340;48.756;9.226;2023-05-10T11:59:58;18.70;99.90
18426;DHT22;9340;48.756;9.226;2023-05-10T12:02:25;18.50;99.90
18426;DHT22;9340;48.756;9.226;2023-05-10T12:04:52;18.20;99.90
18426;DHT22;9340;48.756;9.226;2023-05-10T12:07:18;18.30;99.90
18426;DHT22;9340;48.756;9.226;2023-05-10T12:10:04;18.40;99.90
18426;DHT22;9340;48.756;9.226;2023-05-10T12:12:38;18.60;99.90
18426;DHT22;9340;48.756;9.226;2023-05-10T12:15:10;18.80;99.90
18426;DHT22;9340;48.756;9.226;2023-05-10T12:17:37;19.00;99.90
18426;DHT22;9340;48.756;9.226;2023-05-10T12:20:17;19.20;99.90
18426;DHT22;9340;48.756;9.226;2023-05-10T12:22:46;19.30;99.90
18426;DHT22;9340;48.756;9.226;2023-05-10T12:25:15;19.10;99.90
18426;DHT22;9340;48.756;9.226;2023-05-10T12:27:48;19.20;99.90
18426;DHT22;9340;48.756;9.226;2023-05-10T12:30:19;19.20;99.90
18426;DHT22;9340;48.756;9.226;2023-05-10T12:32:47;19.30;99.90
18426;DHT22;9340;48.756;9.226;2023-05-10T12:35:13;19.30;99.90
18426;DHT22;9340;48.756;9.226;2023-05-10T12:37:42;19.60;99.90
18426;DHT22;9340;48.756;9.226;2023-05-10T12:40:10;19.80;99.90
18426;DHT22;9340;48.756;9.226;2023-05-10T12:42:39;20.30;99.90
18426;DHT22;9340;48.756;9.226;2023-05-10T12:45:07;20.60;99.90
18426;DHT22;9340;48.756;9.226;2023-05-10T12:47:34;20.60;99.90
18426;DHT22;9340;48.756;9.226;2023-05-10T12:50:01;20.60;99.90
18426;DHT22;9340;48.756;9.226;2023-05-10T12:52:28;20.50;99.90
18426;DHT22;9340;48.756;9.226;2023-05-10T12:54:55;20.30;99.90
18426;DHT22;9340;48.756;9.226;2023-05-10T12:57:22;19.80;99.90
18426;DHT22;9340;48.756;9.226;2023-05-10T12:59:50;19.50;99.90
18426;DHT22;9340;48.756;9.226;2023-05-10T13:02:17;19.30;99.90
18426;DHT22;9340;48.756;9.226;2023-05-10T13:04:44;19.20;99.90
18426;DHT22;9340;48.756;9.226;2023-05-10T13:07:11;18.90;99.90
18426;DHT22;9340;48.756;9.226;2023-05-10T13:09:38;18.60;99.90
18426;DHT22;9340;48.756;9.226;2023-05-10T13:12:05;18.40;99.90
18426;DHT22;9340;48.756;9.226;2023-05-10T13:14:32;18.20;99.90
18426;DHT22;9340;48.756;9.226;2023-05-10T13:17:00;18.00;99.90
18426;DHT22;9340;48.756;9.226;2023-05-10T13:19:27;17.80;99.90
18426;DHT22;9340;48.756;9.226;2023-05-10T13:21:53;17.80;99.90
18426;DHT22;9340;48.756;9.226;2023-05-10T13:24:20;17.80;99.90
18426;DHT22;9340;48.756;9.226;2023-05-10T13:26:47;18.00;99.90
18426;DHT22;9340;48.756;9.226;2023-05-10T13:29:13;18.20;99.90
18426;DHT22;9340;48.756;9.226;2023-05-10T13:31:42;18.60;99.90
18426;DHT22;9340;48.756;9.226;2023-05-10T13:34:10;19.20;99.90
18426;DHT22;9340;48.756;9.226;2023-05-10T13:36:37;19.70;99.90
18426;DHT22;9340;48.756;9.226;2023-05-10T13:39:04;20.10;99.90
18426;DHT22;9340;48.756;9.226;2023-05-10T13:41:31;20.50;99.90
18426;DHT22;9340;48.756;9.226;2023-05-10T13:43:58;20.70;99.90
18426;DHT22;9340;48.756;9.226;2023-05-10T13:46:25;20.80;99.90
18426;DHT22;9340;48.756;9.226;2023-05-10T13:48:51;20.90;99.90
18426;DHT22;9340;48.756;9.226;2023-05-10T13:51:19;20.90;99.90
18426;DHT22;9340;48.756;9.226;2023-05-10T13:53:46;20.90;99.90
18426;DHT22;9340;48.756;9.226;2023-05-10T13:56:13;20.70;99.90
18426;DHT22;9340;48.756;9.226;2023-05-10T13:58:40;20.60;99.90
18426;DHT22;9340;48.756;9.226;2023-05-10T14:01:07;20.30;99.90
18426;DHT22;9340;48.756;9.226;2023-05-10T14:03:34;20.00;99.90
18426;DHT22;9340;48.756;9.226;2023-05-10T14:06:00;20.20;99.90
18426;DHT22;9340;48.756;9.226;2023-05-10T14:08:29;20.40;99.90
18426;DHT22;9340;48.756;9.226;2023-05-10T14:10:55;20.50;99.90
18426;DHT22;9340;48.756;9.226;2023-05-10T14:13:23;20.60;99.90
18426;DHT22;9340;48.756;9.226;2023-05-10T14:15:50;20.50;99.90
18426;DHT22;9340;48.756;9.226;2023-05-10T14:18:17;20.40;99.90
18426;DHT22;9340;48.756;9.226;2023-05-10T14:20:43;20.50;99.90
18426;DHT22;9340;48.756;9.226;2023-05-10T14:23:10;20.60;99.90
18426;DHT22;9340;48.756;9.226;2023-05-10T14:25:39;20.70;99.90
18426;DHT22;9340;48.756;9.226;2023-05-10T14:28:06;20.80;99.90
18426;DHT22;9340;48.756;9.226;2023-05-10T14:30:33;20.90;99.90
18426;DHT22;9340;48.756;9.226;2023-05-10T14:33:01;21.10;99.90
18426;DHT22;9340;48.756;9.226;2023-05-10T14:35:28;21.30;99.90
18426;DHT22;9340;48.756;9.226;2023-05-10T14:37:56;21.20;99.90
18426;DHT22;9340;48.756;9.226;2023-05-10T14:40:23;21.30;99.90
18426;DHT22;9340;48.756;9.226;2023-05-10T14:42:51;21.50;99.90
18426;DHT22;9340;48.756;9.226;2023-05-10T14:45:19;21.50;99.90
18426;DHT22;9340;48.756;9.226;2023-05-10T14:47:45;21.00;99.90
18426;DHT22;9340;48.756;9.226;2023-05-10T14:50:12;21.20;99.90
18426;DHT22;9340;48.756;9.226;2023-05-10T14:52:39;21.10;99.90
18426;DHT22;9340;48.756;9.226;2023-05-10T14:55:06;21.10;99.90
18426;DHT22;9340;48.756;9.226;2023-05-10T14:57:33;21.00;99.90
18426;DHT22;9340;48.756;9.226;2023-05-10T15:00:01;20.90;99.90
18426;DHT22;9340;48.756;9.226;2023-05-10T15:02:29;20.80;99.90
18426;DHT22;9340;48.756;9.226;2023-05-10T15:04:55;20.80;99.90
18426;DHT22;9340;48.756;9.226;2023-05-10T15:07:22;20.70;99.90
18426;DHT22;9340;48.756;9.226;2023-05-10T15:09:50;20.80;99.90
18426;DHT22;9340;48.756;9.226;2023-05-10T15:12:17;20.60;99.90
18426;DHT22;9340;48.756;9.226;2023-05-10T15:14:44;20.50;99.90
18426;DHT22;9340;48.756;9.226;2023-05-10T15:17:12;20.40;99.90
18426;DHT22;9340;48.756;9.226;2023-05-10T15:19:38;20.40;99.90
18426;DHT22;9340;48.756;9.226;2023-05-10T15:22:05;20.40;99.90
18426;DHT22;9340;48.756;9.226;2023-05-10T15:24:32;20.30;99.90
18426;DHT22;9340;48.756;9.226;2023-05-10T15:26:59;20.30;99.90
18426;DHT22;9340;48.756;9.226;2023-05-10T15:29:26;20.30;99.90
18426;DHT22;9340;48.756;9.226;2023-05-10T15:31:53;20.40;99.90
18426;DHT22;9340;48.756;9.226;2023-05-10T15:34:21;20.50;99.90
18426;DHT22;9340;48.756;9.226;2023-05-10T15:36:47;20.50;99.90
18426;DHT22;9340;48.756;9.226;2023-05-10T15:39:14;20.50;99.90
18426;DHT22;9340;48.756;9.226;2023-05-10T15:41:41;20.30;99.90
18426;DHT22;9340;48.756;9.226;2023-05-10T15:44:07;20.30;99.90
18426;DHT22;9340;48.756;9.226;2023-05-10T15:46:34;20.20;99.90
18426;DHT22;9340;48.756;9.226;2023-05-10T15:49:03;20.30;99.90
18426;DHT22;9340;48.756;9.226;2023-05-10T15:51:32;20.50;99.90